Flight Track Log - Related Links

Times and Time Zones

All times are in EDT time to prevent confusion due to time zone crossing. See the UPS1305 flight status page for this flight to view local times or setup timezone preferences in your user account.


Time Position Orientation Groundspeed Altitude Reporting Facility
EDT Latitude Longitude Course Direction KTS MPH feet Rate Location/Type
Wed 10:08:52 PM 33.6500 -84.4833 320° Northwest 180 207 4,300  Level Atlanta TRACON
Wed 10:09:58 PM 33.6833 -84.5500 301° West 237 273 7,500 2,559 Climbing Atlanta TRACON
Wed 10:14:00 PM 34.0119 -84.3451 320° Northwest  Level FlightAware Approximate
Wed 10:15:33 PM 34.2428 -84.5928 358° North 417 480 21,400  Level FlightAware ADS-B
Wed 10:16:12 PM 34.3187 -84.6025 351° North 411 473 22,900 1,950 Climbing FlightAware ADS-B
Wed 10:16:53 PM 34.3965 -84.6215 348° North 415 478 24,000 825 Climbing FlightAware ADS-B
Wed 10:17:32 PM 34.4712 -84.6395 349° North 423 487 24,000 75 Level FlightAware ADS-B
Wed 10:18:13 PM 34.5499 -84.6592 348° North 411 473 24,100 987 Climbing FlightAware ADS-B
Wed 10:18:51 PM 34.6226 -84.6773 348° North 413 475 25,300 1,671 Climbing FlightAware ADS-B
Wed 10:19:32 PM 34.7031 -84.6973 348° North 427 491 26,300 1,333 Climbing FlightAware ADS-B
Wed 10:20:12 PM 34.7835 -84.7170 349° North 446 513 27,100 1,259 Climbing FlightAware ADS-B
Wed 10:20:53 PM 34.8667 -84.7375 348° North 441 507 28,000 667 Climbing FlightAware ADS-B
Wed 10:21:33 PM 34.9465 -84.7571 349° North 446 513 28,000  Level FlightAware ADS-B
Wed 10:22:05 PM 35.0112 -84.7737 348° North 443 510 28,000  Level FlightAware ADS-B
Wed 10:22:46 PM 35.0589 -84.7872 348° North 434 499 28,000  Level Atlanta Center
Wed 10:23:46 PM 35.1839 -84.8214 347° North 439 505 28,000  Level Atlanta Center
Wed 10:24:46 PM 35.3067 -84.8506 349° North 444 511 28,000  Level Atlanta Center
Wed 10:25:46 PM 35.4256 -84.8797 349° North 449 517 28,000  Level Atlanta Center
Wed 10:26:46 PM 35.5461 -84.9117 348° North 449 517 28,000  Level Atlanta Center
Wed 10:27:46 PM 35.6650 -84.9436 348° North 444 511 28,000  Level Atlanta Center
Wed 10:34:50 PM 36.5563 -85.0162 North 460 529 28,000  Level FlightAware ADS-B
Wed 10:36:14 PM 36.6797 -85.0093 North 458 527 28,000  Level FlightAware ADS-B
Wed 10:37:15 PM 36.8645 -84.9986 North 458 527 28,000 -850 Level FlightAware ADS-B
Wed 10:38:14 PM 36.9880 -84.9912 North 437 503 26,300 -2,177 Descending FlightAware ADS-B
Wed 10:39:08 PM 37.0924 -84.9864 North 422 486 23,900 -2,529 Descending FlightAware ADS-B
Wed 10:40:15 PM 37.2204 -84.9785 North 396 456 21,200 -2,429 Descending FlightAware ADS-B
Wed 10:41:14 PM 37.3296 -84.9724 North 387 445 18,800 -2,542 Descending FlightAware ADS-B
Wed 10:42:13 PM 37.4302 -84.9663 North 381 438 16,200 -1,966 Descending FlightAware ADS-B
Wed 10:43:13 PM 37.5312 -84.9603 North 362 417 14,900 -1,500 Descending FlightAware ADS-B
Wed 10:44:13 PM 37.6354 -84.9653 343° North 337 388 13,200 -1,672 Descending FlightAware ADS-B
Wed 10:45:15 PM 37.7101 -85.0279 312° West 299 344 11,500 -1,600 Descending FlightAware ADS-B
Wed 10:46:13 PM 37.7639 -85.1037 312° West 315 362 10,000 -800 Descending FlightAware ADS-B
Wed 10:47:15 PM 37.8255 -85.1890 312° West 309 356 9,900  Descending FlightAware ADS-B
Wed 10:48:29 PM 37.8814 -85.2908 285° West 259 298 10,000 -575 Climbing FlightAware ADS-B
Wed 10:49:41 PM 37.9029 -85.3925 285° West 241 277 8,500 -1,324 Descending FlightAware ADS-B
Wed 10:50:54 PM 37.9246 -85.4908 285° West 239 275 6,800 -1,636 Descending FlightAware ADS-B
Wed 10:51:20 PM 37.9320 -85.5258 285° West 238 274 5,800 -2,300 Descending FlightAware ADS-B
Wed 10:51:54 PM 37.9421 -85.5717 286° West 239 275 4,500 -1,404 Descending FlightAware ADS-B
Wed 10:52:54 PM 37.9585 -85.6463 286° West 195 224 3,600 -744 Descending FlightAware ADS-B
Wed 10:53:55 PM 37.9919 -85.6849 345° North 166 191 3,000 -350 Descending FlightAware ADS-B
Wed 10:54:54 PM 38.0365 -85.6990 346° North 169 194 2,900 -458 Descending FlightAware ADS-B
Wed 10:55:53 PM 38.0779 -85.7128 345° North 147 169 2,100 -842 Descending FlightAware ADS-B
Wed 10:56:48 PM 38.1095 -85.7232 345° North 115 132 1,300 -634 Descending FlightAware ADS-B
Wed 10:58:15 PM 38.1500 -85.7333 208° Southwest 124 143 600 -483 Descending Louisville TRACON

Login

Don't have an account? Register now (free) for customized features, flight alerts, and more!